sensor_id;sensor_type;location;lat;lon;timestamp;P1;durP1;ratioP1;P2;durP2;ratioP2
23624;SDS011;11989;47.872;12.014;2023-04-15T05:20:20;7.03;;;1.85;;
23624;SDS011;11989;47.872;12.014;2023-04-15T05:22:46;6.18;;;2.28;;
23624;SDS011;11989;47.872;12.014;2023-04-15T05:25:12;4.88;;;2.10;;
23624;SDS011;11989;47.872;12.014;2023-04-15T05:27:38;6.72;;;2.70;;
23624;SDS011;11989;47.872;12.014;2023-04-15T05:30:04;5.82;;;2.30;;
23624;SDS011;11989;47.872;12.014;2023-04-15T05:32:31;5.30;;;2.70;;
23624;SDS011;11989;47.872;12.014;2023-04-15T05:34:57;5.75;;;2.65;;
23624;SDS011;11989;47.872;12.014;2023-04-15T05:37:23;6.88;;;2.17;;
23624;SDS011;11989;47.872;12.014;2023-04-15T05:39:49;4.30;;;2.13;;
23624;SDS011;11989;47.872;12.014;2023-04-15T05:42:16;11.70;;;5.22;;
23624;SDS011;11989;47.872;12.014;2023-04-15T05:44:42;30.92;;;14.32;;
23624;SDS011;11989;47.872;12.014;2023-04-15T05:47:08;39.80;;;18.98;;
23624;SDS011;11989;47.872;12.014;2023-04-15T05:49:35;63.00;;;31.05;;
23624;SDS011;11989;47.872;12.014;2023-04-15T05:52:01;22.33;;;14.00;;
23624;SDS011;11989;47.872;12.014;2023-04-15T05:54:27;57.90;;;30.35;;
23624;SDS011;11989;47.872;12.014;2023-04-15T05:56:53;22.33;;;12.50;;
23624;SDS011;11989;47.872;12.014;2023-04-15T05:59:20;7.97;;;5.03;;
23624;SDS011;11989;47.872;12.014;2023-04-15T06:01:46;7.45;;;3.20;;
23624;SDS011;11989;47.872;12.014;2023-04-15T06:04:12;6.78;;;2.40;;
23624;SDS011;11989;47.872;12.014;2023-04-15T06:06:38;6.20;;;2.38;;
23624;SDS011;11989;47.872;12.014;2023-04-15T06:09:05;6.28;;;2.13;;
23624;SDS011;11989;47.872;12.014;2023-04-15T06:11:31;6.78;;;2.05;;
23624;SDS011;11989;47.872;12.014;2023-04-15T06:13:57;4.68;;;2.00;;
23624;SDS011;11989;47.872;12.014;2023-04-15T06:16:23;5.50;;;2.47;;
23624;SDS011;11989;47.872;12.014;2023-04-15T06:18:50;6.78;;;2.85;;
23624;SDS011;11989;47.872;12.014;2023-04-15T06:21:16;4.32;;;1.80;;
23624;SDS011;11989;47.872;12.014;2023-04-15T06:23:42;5.03;;;1.75;;
23624;SDS011;11989;47.872;12.014;2023-04-15T06:26:08;4.03;;;1.90;;
23624;SDS011;11989;47.872;12.014;2023-04-15T06:28:34;4.57;;;1.85;;
23624;SDS011;11989;47.872;12.014;2023-04-15T06:31:00;6.57;;;1.80;;
23624;SDS011;11989;47.872;12.014;2023-04-15T06:33:26;4.60;;;2.13;;
23624;SDS011;11989;47.872;12.014;2023-04-15T06:35:52;7.28;;;2.00;;
23624;SDS011;11989;47.872;12.014;2023-04-15T06:38:18;5.35;;;1.80;;
23624;SDS011;11989;47.872;12.014;2023-04-15T06:40:44;6.20;;;1.90;;
23624;SDS011;11989;47.872;12.014;2023-04-15T06:43:10;4.10;;;1.60;;
23624;SDS011;11989;47.872;12.014;2023-04-15T06:45:36;3.90;;;1.15;;
23624;SDS011;11989;47.872;12.014;2023-04-15T06:48:03;3.95;;;1.60;;
23624;SDS011;11989;47.872;12.014;2023-04-15T06:50:29;3.08;;;1.38;;
23624;SDS011;11989;47.872;12.014;2023-04-15T06:52:56;5.20;;;2.15;;
23624;SDS011;11989;47.872;12.014;2023-04-15T06:55:22;5.88;;;1.75;;
23624;SDS011;11989;47.872;12.014;2023-04-15T06:57:48;5.55;;;1.70;;
23624;SDS011;11989;47.872;12.014;2023-04-15T07:00:14;4.47;;;2.05;;
23624;SDS011;11989;47.872;12.014;2023-04-15T07:02:41;5.85;;;1.80;;
23624;SDS011;11989;47.872;12.014;2023-04-15T07:05:07;3.92;;;1.50;;
23624;SDS011;11989;47.872;12.014;2023-04-15T07:07:34;4.55;;;1.40;;
23624;SDS011;11989;47.872;12.014;2023-04-15T07:10:00;4.50;;;2.08;;
23624;SDS011;11989;47.872;12.014;2023-04-15T07:12:27;4.68;;;1.83;;
23624;SDS011;11989;47.872;12.014;2023-04-15T07:14:53;4.30;;;1.98;;
23624;SDS011;11989;47.872;12.014;2023-04-15T07:17:20;4.28;;;1.65;;
23624;SDS011;11989;47.872;12.014;2023-04-15T07:19:46;5.70;;;1.80;;
23624;SDS011;11989;47.872;12.014;2023-04-15T07:22:12;6.10;;;2.45;;
23624;SDS011;11989;47.872;12.014;2023-04-15T07:24:38;5.40;;;2.20;;
23624;SDS011;11989;47.872;12.014;2023-04-15T07:27:04;7.40;;;2.65;;
23624;SDS011;11989;47.872;12.014;2023-04-15T07:29:30;8.48;;;2.10;;
23624;SDS011;11989;47.872;12.014;2023-04-15T07:31:56;5.55;;;2.50;;
23624;SDS011;11989;47.872;12.014;2023-04-15T07:34:22;4.60;;;1.85;;
23624;SDS011;11989;47.872;12.014;2023-04-15T07:36:48;7.72;;;2.80;;
23624;SDS011;11989;47.872;12.014;2023-04-15T07:39:15;7.47;;;2.85;;
23624;SDS011;11989;47.872;12.014;2023-04-15T07:41:42;7.32;;;4.55;;
23624;SDS011;11989;47.872;12.014;2023-04-15T07:44:08;11.27;;;8.63;;
23624;SDS011;11989;47.872;12.014;2023-04-15T07:46:34;11.20;;;5.97;;
23624;SDS011;11989;47.872;12.014;2023-04-15T07:49:01;6.50;;;3.67;;
23624;SDS011;11989;47.872;12.014;2023-04-15T07:51:27;5.20;;;2.25;;
23624;SDS011;11989;47.872;12.014;2023-04-15T07:53:53;4.15;;;2.13;;
23624;SDS011;11989;47.872;12.014;2023-04-15T07:56:20;4.88;;;1.90;;
23624;SDS011;11989;47.872;12.014;2023-04-15T07:58:46;6.20;;;2.22;;
23624;SDS011;11989;47.872;12.014;2023-04-15T08:01:12;5.68;;;2.15;;
23624;SDS011;11989;47.872;12.014;2023-04-15T08:03:38;4.10;;;1.80;;
23624;SDS011;11989;47.872;12.014;2023-04-15T08:06:04;11.07;;;3.38;;
23624;SDS011;11989;47.872;12.014;2023-04-15T08:08:30;10.75;;;4.22;;
23624;SDS011;11989;47.872;12.014;2023-04-15T08:10:57;6.95;;;2.67;;
23624;SDS011;11989;47.872;12.014;2023-04-15T08:13:23;6.40;;;2.20;;
23624;SDS011;11989;47.872;12.014;2023-04-15T08:18:34;6.03;;;2.40;;
23624;SDS011;11989;47.872;12.014;2023-04-15T08:21:00;4.72;;;1.83;;
23624;SDS011;11989;47.872;12.014;2023-04-15T08:23:26;3.30;;;1.45;;
23624;SDS011;11989;47.872;12.014;2023-04-15T08:25:52;3.83;;;1.90;;
23624;SDS011;11989;47.872;12.014;2023-04-15T08:28:18;4.57;;;1.50;;
23624;SDS011;11989;47.872;12.014;2023-04-15T08:30:44;3.25;;;1.48;;
23624;SDS011;11989;47.872;12.014;2023-04-15T08:33:10;6.13;;;1.88;;
23624;SDS011;11989;47.872;12.014;2023-04-15T08:35:36;5.00;;;1.73;;
23624;SDS011;11989;47.872;12.014;2023-04-15T08:38:02;4.65;;;1.98;;
23624;SDS011;11989;47.872;12.014;2023-04-15T08:40:30;3.63;;;1.98;;
23624;SDS011;11989;47.872;12.014;2023-04-15T08:43:00;5.47;;;2.15;;
23624;SDS011;11989;47.872;12.014;2023-04-15T08:45:27;3.97;;;1.52;;
23624;SDS011;11989;47.872;12.014;2023-04-15T08:47:54;5.20;;;1.92;;
23624;SDS011;11989;47.872;12.014;2023-04-15T08:50:20;7.65;;;2.38;;
23624;SDS011;11989;47.872;12.014;2023-04-15T08:52:47;4.90;;;1.83;;
23624;SDS011;11989;47.872;12.014;2023-04-15T08:55:13;3.42;;;1.75;;
23624;SDS011;11989;47.872;12.014;2023-04-15T08:57:40;4.65;;;2.05;;
23624;SDS011;11989;47.872;12.014;2023-04-15T09:00:06;4.95;;;1.98;;
23624;SDS011;11989;47.872;12.014;2023-04-15T09:02:33;4.32;;;1.77;;
23624;SDS011;11989;47.872;12.014;2023-04-15T09:04:59;3.50;;;2.10;;
23624;SDS011;11989;47.872;12.014;2023-04-15T09:07:28;4.35;;;2.00;;
23624;SDS011;11989;47.872;12.014;2023-04-15T09:09:55;3.63;;;2.03;;
23624;SDS011;11989;47.872;12.014;2023-04-15T09:12:21;7.50;;;2.30;;
23624;SDS011;11989;47.872;12.014;2023-04-15T09:14:47;5.97;;;2.13;;
23624;SDS011;11989;47.872;12.014;2023-04-15T09:17:13;5.70;;;2.38;;
23624;SDS011;11989;47.872;12.014;2023-04-15T09:19:43;7.45;;;2.38;;
23624;SDS011;11989;47.872;12.014;2023-04-15T09:22:09;5.05;;;2.30;;
23624;SDS011;11989;47.872;12.014;2023-04-15T09:24:36;4.82;;;1.70;;
23624;SDS011;11989;47.872;12.014;2023-04-15T09:27:03;5.75;;;2.10;;
23624;SDS011;11989;47.872;12.014;2023-04-15T09:29:29;5.90;;;2.05;;
23624;SDS011;11989;47.872;12.014;2023-04-15T09:31:55;8.05;;;2.35;;
23624;SDS011;11989;47.872;12.014;2023-04-15T09:34:21;8.95;;;2.35;;
23624;SDS011;11989;47.872;12.014;2023-04-15T09:36:59;6.03;;;1.92;;
23624;SDS011;11989;47.872;12.014;2023-04-15T09:39:25;4.80;;;2.03;;
23624;SDS011;11989;47.872;12.014;2023-04-15T09:42:07;8.27;;;3.20;;
23624;SDS011;11989;47.872;12.014;2023-04-15T09:44:33;4.75;;;2.10;;
23624;SDS011;11989;47.872;12.014;2023-04-15T09:46:59;4.72;;;2.22;;
23624;SDS011;11989;47.872;12.014;2023-04-15T09:49:26;5.38;;;2.40;;
23624;SDS011;11989;47.872;12.014;2023-04-15T09:51:56;6.13;;;2.50;;
23624;SDS011;11989;47.872;12.014;2023-04-15T09:54:22;6.45;;;2.50;;
23624;SDS011;11989;47.872;12.014;2023-04-15T09:56:48;5.43;;;2.50;;
23624;SDS011;11989;47.872;12.014;2023-04-15T09:59:14;5.00;;;3.08;;
23624;SDS011;11989;47.872;12.014;2023-04-15T10:01:41;7.88;;;3.13;;
23624;SDS011;11989;47.872;12.014;2023-04-15T10:04:07;5.85;;;2.90;;
23624;SDS011;11989;47.872;12.014;2023-04-15T10:06:33;6.25;;;2.70;;
23624;SDS011;11989;47.872;12.014;2023-04-15T10:09:00;5.85;;;2.38;;
23624;SDS011;11989;47.872;12.014;2023-04-15T10:11:29;5.10;;;2.47;;
23624;SDS011;11989;47.872;12.014;2023-04-15T10:13:56;6.47;;;2.92;;
23624;SDS011;11989;47.872;12.014;2023-04-15T10:16:25;7.78;;;3.42;;
23624;SDS011;11989;47.872;12.014;2023-04-15T10:18:55;6.47;;;3.00;;
23624;SDS011;11989;47.872;12.014;2023-04-15T10:21:22;5.63;;;2.88;;
23624;SDS011;11989;47.872;12.014;2023-04-15T10:23:49;4.88;;;2.70;;
23624;SDS011;11989;47.872;12.014;2023-04-15T10:26:15;7.95;;;3.50;;
23624;SDS011;11989;47.872;12.014;2023-04-15T10:28:45;5.70;;;3.83;;
23624;SDS011;11989;47.872;12.014;2023-04-15T10:31:12;10.35;;;4.88;;
23624;SDS011;11989;47.872;12.014;2023-04-15T10:33:41;5.32;;;3.30;;
23624;SDS011;11989;47.872;12.014;2023-04-15T10:36:09;7.00;;;3.63;;
23624;SDS011;11989;47.872;12.014;2023-04-15T10:38:39;6.25;;;3.42;;
23624;SDS011;11989;47.872;12.014;2023-04-15T10:43:38;6.38;;;3.45;;
23624;SDS011;11989;47.872;12.014;2023-04-15T10:46:05;7.90;;;3.25;;
23624;SDS011;11989;47.872;12.014;2023-04-15T10:48:31;6.30;;;3.63;;
23624;SDS011;11989;47.872;12.014;2023-04-15T10:50:59;5.65;;;3.33;;
23624;SDS011;11989;47.872;12.014;2023-04-15T10:53:29;13.98;;;3.22;;
23624;SDS011;11989;47.872;12.014;2023-04-15T10:55:56;5.55;;;3.13;;
23624;SDS011;11989;47.872;12.014;2023-04-15T10:58:24;7.75;;;3.53;;
23624;SDS011;11989;47.872;12.014;2023-04-15T11:00:51;5.20;;;3.45;;
23624;SDS011;11989;47.872;12.014;2023-04-15T11:03:33;7.40;;;3.47;;
23624;SDS011;11989;47.872;12.014;2023-04-15T11:06:01;6.30;;;3.38;;
23624;SDS011;11989;47.872;12.014;2023-04-15T11:11:12;11.23;;;3.95;;
23624;SDS011;11989;47.872;12.014;2023-04-15T11:13:46;6.10;;;3.50;;
23624;SDS011;11989;47.872;12.014;2023-04-15T11:16:12;8.95;;;5.28;;
23624;SDS011;11989;47.872;12.014;2023-04-15T11:18:38;8.25;;;5.65;;
23624;SDS011;11989;47.872;12.014;2023-04-15T11:21:05;7.85;;;5.05;;
23624;SDS011;11989;47.872;12.014;2023-04-15T11:23:38;7.43;;;4.10;;
23624;SDS011;11989;47.872;12.014;2023-04-15T11:26:08;10.10;;;4.13;;
23624;SDS011;11989;47.872;12.014;2023-04-15T11:28:36;5.35;;;3.20;;
23624;SDS011;11989;47.872;12.014;2023-04-15T11:31:11;8.13;;;3.83;;
23624;SDS011;11989;47.872;12.014;2023-04-15T11:33:44;7.10;;;3.20;;
23624;SDS011;11989;47.872;12.014;2023-04-15T11:36:10;6.68;;;3.03;;
23624;SDS011;11989;47.872;12.014;2023-04-15T11:38:36;5.25;;;3.00;;
23624;SDS011;11989;47.872;12.014;2023-04-15T11:41:02;12.63;;;5.65;;
23624;SDS011;11989;47.872;12.014;2023-04-15T11:43:28;5.68;;;3.00;;
23624;SDS011;11989;47.872;12.014;2023-04-15T11:45:57;4.78;;;2.65;;
23624;SDS011;11989;47.872;12.014;2023-04-15T11:48:30;8.13;;;3.38;;
23624;SDS011;11989;47.872;12.014;2023-04-15T11:50:58;5.78;;;2.80;;
23624;SDS011;11989;47.872;12.014;2023-04-15T11:53:34;4.75;;;2.70;;
23624;SDS011;11989;47.872;12.014;2023-04-15T11:56:01;8.40;;;3.60;;
23624;SDS011;11989;47.872;12.014;2023-04-15T11:58:28;8.18;;;2.90;;
23624;SDS011;11989;47.872;12.014;2023-04-15T12:00:56;6.07;;;2.90;;
23624;SDS011;11989;47.872;12.014;2023-04-15T12:11:15;6.47;;;2.67;;
23624;SDS011;11989;47.872;12.014;2023-04-15T12:13:46;5.55;;;2.33;;
23624;SDS011;11989;47.872;12.014;2023-04-15T12:16:15;6.70;;;3.03;;
23624;SDS011;11989;47.872;12.014;2023-04-15T12:18:43;6.43;;;2.88;;
23624;SDS011;11989;47.872;12.014;2023-04-15T12:21:10;7.38;;;3.00;;
23624;SDS011;11989;47.872;12.014;2023-04-15T12:23:39;7.32;;;3.25;;
23624;SDS011;11989;47.872;12.014;2023-04-15T12:26:13;5.45;;;2.78;;
23624;SDS011;11989;47.872;12.014;2023-04-15T12:28:39;7.55;;;3.22;;
23624;SDS011;11989;47.872;12.014;2023-04-15T12:31:09;5.78;;;2.97;;
23624;SDS011;11989;47.872;12.014;2023-04-15T12:33:35;6.10;;;3.25;;
23624;SDS011;11989;47.872;12.014;2023-04-15T12:36:01;6.10;;;3.03;;
23624;SDS011;11989;47.872;12.014;2023-04-15T12:38:28;5.63;;;2.80;;
23624;SDS011;11989;47.872;12.014;2023-04-15T12:40:55;6.63;;;2.92;;
23624;SDS011;11989;47.872;12.014;2023-04-15T12:43:21;6.68;;;3.28;;
23624;SDS011;11989;47.872;12.014;2023-04-15T12:45:47;6.75;;;3.67;;
23624;SDS011;11989;47.872;12.014;2023-04-15T12:48:13;7.50;;;2.83;;
23624;SDS011;11989;47.872;12.014;2023-04-15T12:50:40;5.78;;;3.45;;
23624;SDS011;11989;47.872;12.014;2023-04-15T12:53:06;5.85;;;2.78;;
23624;SDS011;11989;47.872;12.014;2023-04-15T12:55:33;7.28;;;3.28;;
23624;SDS011;11989;47.872;12.014;2023-04-15T12:57:59;6.00;;;3.90;;
23624;SDS011;11989;47.872;12.014;2023-04-15T13:00:25;6.60;;;3.70;;
23624;SDS011;11989;47.872;12.014;2023-04-15T13:02:51;9.77;;;4.30;;
23624;SDS011;11989;47.872;12.014;2023-04-15T13:05:17;7.90;;;4.20;;
23624;SDS011;11989;47.872;12.014;2023-04-15T13:07:43;7.65;;;4.50;;
23624;SDS011;11989;47.872;12.014;2023-04-15T13:10:09;6.03;;;4.25;;
23624;SDS011;11989;47.872;12.014;2023-04-15T13:12:35;7.68;;;4.20;;
23624;SDS011;11989;47.872;12.014;2023-04-15T13:15:02;5.25;;;3.28;;
23624;SDS011;11989;47.872;12.014;2023-04-15T13:17:28;7.47;;;3.78;;
23624;SDS011;11989;47.872;12.014;2023-04-15T13:19:55;8.40;;;4.43;;
23624;SDS011;11989;47.872;12.014;2023-04-15T13:22:21;9.40;;;4.68;;
23624;SDS011;11989;47.872;12.014;2023-04-15T13:24:47;6.28;;;4.28;;
23624;SDS011;11989;47.872;12.014;2023-04-15T13:27:13;7.55;;;5.07;;
23624;SDS011;11989;47.872;12.014;2023-04-15T13:29:39;10.90;;;5.40;;
23624;SDS011;11989;47.872;12.014;2023-04-15T13:32:05;6.15;;;3.60;;
23624;SDS011;11989;47.872;12.014;2023-04-15T13:34:31;7.22;;;3.78;;
23624;SDS011;11989;47.872;12.014;2023-04-15T13:36:57;7.38;;;3.78;;
23624;SDS011;11989;47.872;12.014;2023-04-15T13:39:23;9.10;;;4.25;;
23624;SDS011;11989;47.872;12.014;2023-04-15T13:41:49;9.05;;;4.40;;
23624;SDS011;11989;47.872;12.014;2023-04-15T13:44:15;7.78;;;4.22;;
23624;SDS011;11989;47.872;12.014;2023-04-15T13:46:41;6.68;;;3.65;;
23624;SDS011;11989;47.872;12.014;2023-04-15T13:49:07;6.82;;;4.00;;
23624;SDS011;11989;47.872;12.014;2023-04-15T13:51:33;8.20;;;4.93;;
23624;SDS011;11989;47.872;12.014;2023-04-15T13:54:02;7.80;;;4.82;;
23624;SDS011;11989;47.872;12.014;2023-04-15T13:56:28;10.65;;;4.40;;
23624;SDS011;11989;47.872;12.014;2023-04-15T13:58:54;7.50;;;4.10;;
23624;SDS011;11989;47.872;12.014;2023-04-15T14:01:23;8.35;;;4.15;;
23624;SDS011;11989;47.872;12.014;2023-04-15T14:03:49;7.82;;;4.55;;
23624;SDS011;11989;47.872;12.014;2023-04-15T14:06:15;7.03;;;4.10;;
23624;SDS011;11989;47.872;12.014;2023-04-15T14:08:41;4.75;;;3.53;;
23624;SDS011;11989;47.872;12.014;2023-04-15T14:11:07;5.47;;;3.55;;
23624;SDS011;11989;47.872;12.014;2023-04-15T14:13:33;6.40;;;3.42;;
23624;SDS011;11989;47.872;12.014;2023-04-15T14:15:59;6.50;;;3.33;;
23624;SDS011;11989;47.872;12.014;2023-04-15T14:18:25;5.45;;;2.92;;
23624;SDS011;11989;47.872;12.014;2023-04-15T14:20:52;6.10;;;3.97;;
23624;SDS011;11989;47.872;12.014;2023-04-15T14:23:18;8.15;;;3.95;;
23624;SDS011;11989;47.872;12.014;2023-04-15T14:25:44;6.63;;;4.35;;
23624;SDS011;11989;47.872;12.014;2023-04-15T14:28:10;6.50;;;3.90;;
23624;SDS011;11989;47.872;12.014;2023-04-15T14:30:36;6.75;;;4.88;;
23624;SDS011;11989;47.872;12.014;2023-04-15T14:33:02;9.85;;;5.53;;
23624;SDS011;11989;47.872;12.014;2023-04-15T14:35:28;8.70;;;4.90;;
23624;SDS011;11989;47.872;12.014;2023-04-15T14:37:55;8.77;;;4.82;;
23624;SDS011;11989;47.872;12.014;2023-04-15T14:40:21;9.95;;;5.53;;
23624;SDS011;11989;47.872;12.014;2023-04-15T14:42:47;10.98;;;8.30;;
23624;SDS011;11989;47.872;12.014;2023-04-15T14:45:13;8.70;;;6.07;;
23624;SDS011;11989;47.872;12.014;2023-04-15T14:47:40;9.75;;;5.55;;
23624;SDS011;11989;47.872;12.014;2023-04-15T14:50:06;11.05;;;5.47;;
23624;SDS011;11989;47.872;12.014;2023-04-15T14:52:32;8.40;;;4.53;;
23624;SDS011;11989;47.872;12.014;2023-04-15T14:55:12;9.45;;;5.18;;
23624;SDS011;11989;47.872;12.014;2023-04-15T14:57:38;8.95;;;5.63;;
23624;SDS011;11989;47.872;12.014;2023-04-15T15:00:05;8.85;;;5.00;;
23624;SDS011;11989;47.872;12.014;2023-04-15T15:02:32;7.22;;;5.15;;
23624;SDS011;11989;47.872;12.014;2023-04-15T15:04:59;9.05;;;5.97;;
23624;SDS011;11989;47.872;12.014;2023-04-15T15:07:25;11.02;;;6.53;;
23624;SDS011;11989;47.872;12.014;2023-04-15T15:09:51;9.68;;;7.38;;
23624;SDS011;11989;47.872;12.014;2023-04-15T15:12:17;8.00;;;5.93;;
23624;SDS011;11989;47.872;12.014;2023-04-15T15:14:43;8.50;;;4.38;;
23624;SDS011;11989;47.872;12.014;2023-04-15T15:17:09;8.07;;;3.80;;
23624;SDS011;11989;47.872;12.014;2023-04-15T15:19:35;9.23;;;5.35;;
23624;SDS011;11989;47.872;12.014;2023-04-15T15:22:02;11.15;;;6.85;;
23624;SDS011;11989;47.872;12.014;2023-04-15T15:24:28;11.27;;;6.53;;
23624;SDS011;11989;47.872;12.014;2023-04-15T15:26:54;5.68;;;3.70;;
23624;SDS011;11989;47.872;12.014;2023-04-15T15:29:21;7.22;;;3.70;;
23624;SDS011;11989;47.872;12.014;2023-04-15T15:31:47;6.20;;;4.07;;
23624;SDS011;11989;47.872;12.014;2023-04-15T15:34:14;5.47;;;4.05;;
23624;SDS011;11989;47.872;12.014;2023-04-15T15:36:40;8.77;;;4.90;;
23624;SDS011;11989;47.872;12.014;2023-04-15T15:39:06;11.32;;;5.18;;
23624;SDS011;11989;47.872;12.014;2023-04-15T15:41:32;9.13;;;5.30;;
23624;SDS011;11989;47.872;12.014;2023-04-15T15:43:58;14.52;;;6.82;;
23624;SDS011;11989;47.872;12.014;2023-04-15T15:46:25;16.50;;;8.13;;
23624;SDS011;11989;47.872;12.014;2023-04-15T15:48:51;12.40;;;6.55;;
23624;SDS011;11989;47.872;12.014;2023-04-15T15:51:17;14.27;;;7.30;;
23624;SDS011;11989;47.872;12.014;2023-04-15T15:53:44;22.38;;;10.57;;
23624;SDS011;11989;47.872;12.014;2023-04-15T15:56:10;12.20;;;6.45;;
23624;SDS011;11989;47.872;12.014;2023-04-15T15:58:37;12.95;;;6.97;;
23624;SDS011;11989;47.872;12.014;2023-04-15T16:01:03;10.43;;;5.90;;
23624;SDS011;11989;47.872;12.014;2023-04-15T16:03:29;13.50;;;6.32;;
23624;SDS011;11989;47.872;12.014;2023-04-15T16:05:55;13.00;;;6.85;;
23624;SDS011;11989;47.872;12.014;2023-04-15T16:08:21;12.23;;;6.05;;
23624;SDS011;11989;47.872;12.014;2023-04-15T16:10:47;14.13;;;8.50;;
23624;SDS011;11989;47.872;12.014;2023-04-15T16:13:13;12.75;;;10.80;;
23624;SDS011;11989;47.872;12.014;2023-04-15T16:15:40;12.32;;;8.77;;
23624;SDS011;11989;47.872;12.014;2023-04-15T16:18:06;11.30;;;4.82;;
23624;SDS011;11989;47.872;12.014;2023-04-15T16:20:32;23.58;;;12.13;;
23624;SDS011;11989;47.872;12.014;2023-04-15T16:22:58;22.05;;;12.00;;
23624;SDS011;11989;47.872;12.014;2023-04-15T16:25:24;11.35;;;5.43;;
23624;SDS011;11989;47.872;12.014;2023-04-15T16:27:50;17.60;;;8.23;;
23624;SDS011;11989;47.872;12.014;2023-04-15T16:30:16;13.55;;;6.65;;
23624;SDS011;11989;47.872;12.014;2023-04-15T16:32:42;22.17;;;9.63;;
23624;SDS011;11989;47.872;12.014;2023-04-15T16:35:08;17.23;;;9.15;;
23624;SDS011;11989;47.872;12.014;2023-04-15T16:37:35;7.80;;;5.30;;
23624;SDS011;11989;47.872;12.014;2023-04-15T16:40:02;9.82;;;5.05;;
23624;SDS011;11989;47.872;12.014;2023-04-15T16:42:28;7.65;;;4.40;;
23624;SDS011;11989;47.872;12.014;2023-04-15T16:44:54;7.55;;;5.70;;
23624;SDS011;11989;47.872;12.014;2023-04-15T16:47:20;10.00;;;6.35;;
23624;SDS011;11989;47.872;12.014;2023-04-15T16:49:46;11.05;;;7.35;;
23624;SDS011;11989;47.872;12.014;2023-04-15T16:52:12;9.93;;;6.53;;
23624;SDS011;11989;47.872;12.014;2023-04-15T16:54:38;11.23;;;6.35;;
23624;SDS011;11989;47.872;12.014;2023-04-15T16:57:05;12.07;;;6.22;;
23624;SDS011;11989;47.872;12.014;2023-04-15T16:59:31;9.20;;;5.68;;
23624;SDS011;11989;47.872;12.014;2023-04-15T17:01:57;11.52;;;6.65;;
23624;SDS011;11989;47.872;12.014;2023-04-15T17:04:23;8.52;;;5.40;;
23624;SDS011;11989;47.872;12.014;2023-04-15T17:06:50;6.93;;;4.43;;
23624;SDS011;11989;47.872;12.014;2023-04-15T17:09:16;8.73;;;5.43;;
23624;SDS011;11989;47.872;12.014;2023-04-15T17:11:42;5.90;;;4.35;;
23624;SDS011;11989;47.872;12.014;2023-04-15T17:14:09;7.25;;;5.35;;
23624;SDS011;11989;47.872;12.014;2023-04-15T17:16:35;8.43;;;4.18;;
23624;SDS011;11989;47.872;12.014;2023-04-15T17:19:02;8.95;;;4.43;;
23624;SDS011;11989;47.872;12.014;2023-04-15T17:21:28;6.45;;;4.47;;
23624;SDS011;11989;47.872;12.014;2023-04-15T17:23:55;11.13;;;4.78;;
23624;SDS011;11989;47.872;12.014;2023-04-15T17:26:21;7.40;;;4.80;;
23624;SDS011;11989;47.872;12.014;2023-04-15T17:28:47;7.65;;;4.53;;
23624;SDS011;11989;47.872;12.014;2023-04-15T17:31:13;8.95;;;4.65;;
23624;SDS011;11989;47.872;12.014;2023-04-15T17:33:39;10.80;;;6.10;;
23624;SDS011;11989;47.872;12.014;2023-04-15T17:36:05;12.88;;;7.68;;
23624;SDS011;11989;47.872;12.014;2023-04-15T17:38:31;12.25;;;6.90;;
23624;SDS011;11989;47.872;12.014;2023-04-15T17:40:57;6.60;;;4.70;;
23624;SDS011;11989;47.872;12.014;2023-04-15T17:43:24;6.43;;;4.20;;
23624;SDS011;11989;47.872;12.014;2023-04-15T17:45:50;8.10;;;4.13;;
23624;SDS011;11989;47.872;12.014;2023-04-15T17:48:16;8.20;;;4.03;;
23624;SDS011;11989;47.872;12.014;2023-04-15T17:50:42;7.70;;;4.40;;
23624;SDS011;11989;47.872;12.014;2023-04-15T17:53:08;8.35;;;4.70;;
23624;SDS011;11989;47.872;12.014;2023-04-15T17:55:34;5.53;;;3.70;;
23624;SDS011;11989;47.872;12.014;2023-04-15T17:58:00;5.93;;;3.88;;
23624;SDS011;11989;47.872;12.014;2023-04-15T18:00:26;8.27;;;4.22;;
23624;SDS011;11989;47.872;12.014;2023-04-15T18:02:52;6.20;;;4.55;;
23624;SDS011;11989;47.872;12.014;2023-04-15T18:05:18;6.45;;;4.13;;
23624;SDS011;11989;47.872;12.014;2023-04-15T18:07:44;6.63;;;3.95;;
23624;SDS011;11989;47.872;12.014;2023-04-15T18:10:10;5.65;;;3.92;;
23624;SDS011;11989;47.872;12.014;2023-04-15T18:12:36;8.35;;;4.57;;
23624;SDS011;11989;47.872;12.014;2023-04-15T18:15:02;6.38;;;4.00;;
23624;SDS011;11989;47.872;12.014;2023-04-15T18:17:29;6.88;;;5.05;;
23624;SDS011;11989;47.872;12.014;2023-04-15T18:19:55;6.55;;;4.85;;
23624;SDS011;11989;47.872;12.014;2023-04-15T18:22:21;8.50;;;5.72;;
23624;SDS011;11989;47.872;12.014;2023-04-15T18:24:47;10.15;;;5.28;;
23624;SDS011;11989;47.872;12.014;2023-04-15T18:27:14;7.65;;;4.80;;
23624;SDS011;11989;47.872;12.014;2023-04-15T18:29:40;7.13;;;4.43;;
23624;SDS011;11989;47.872;12.014;2023-04-15T18:32:07;9.45;;;5.00;;
23624;SDS011;11989;47.872;12.014;2023-04-15T18:34:33;8.98;;;5.22;;
23624;SDS011;11989;47.872;12.014;2023-04-15T18:36:59;7.43;;;5.22;;
23624;SDS011;11989;47.872;12.014;2023-04-15T18:39:26;6.28;;;4.75;;
23624;SDS011;11989;47.872;12.014;2023-04-15T18:41:52;8.48;;;4.70;;
23624;SDS011;11989;47.872;12.014;2023-04-15T18:44:18;8.00;;;4.32;;
23624;SDS011;11989;47.872;12.014;2023-04-15T18:46:44;9.80;;;4.57;;
23624;SDS011;11989;47.872;12.014;2023-04-15T18:49:11;9.02;;;5.28;;
23624;SDS011;11989;47.872;12.014;2023-04-15T18:51:37;9.82;;;6.07;;
23624;SDS011;11989;47.872;12.014;2023-04-15T18:54:03;9.75;;;5.43;;
23624;SDS011;11989;47.872;12.014;2023-04-15T18:56:29;8.10;;;5.20;;
23624;SDS011;11989;47.872;12.014;2023-04-15T18:58:55;9.57;;;6.13;;
23624;SDS011;11989;47.872;12.014;2023-04-15T19:01:22;7.43;;;4.82;;
23624;SDS011;11989;47.872;12.014;2023-04-15T19:03:48;10.55;;;6.47;;
23624;SDS011;11989;47.872;12.014;2023-04-15T19:06:14;9.57;;;5.85;;
23624;SDS011;11989;47.872;12.014;2023-04-15T19:08:40;7.90;;;5.30;;
23624;SDS011;11989;47.872;12.014;2023-04-15T19:11:07;9.55;;;6.15;;
23624;SDS011;11989;47.872;12.014;2023-04-15T19:13:33;9.40;;;6.10;;
23624;SDS011;11989;47.872;12.014;2023-04-15T19:15:59;10.43;;;6.55;;
23624;SDS011;11989;47.872;12.014;2023-04-15T19:18:25;11.43;;;7.63;;
23624;SDS011;11989;47.872;12.014;2023-04-15T19:20:51;8.50;;;6.05;;
23624;SDS011;11989;47.872;12.014;2023-04-15T19:23:19;9.88;;;6.78;;
23624;SDS011;11989;47.872;12.014;2023-04-15T19:25:46;9.55;;;5.88;;
23624;SDS011;11989;47.872;12.014;2023-04-15T19:28:12;10.18;;;7.03;;
23624;SDS011;11989;47.872;12.014;2023-04-15T19:30:38;9.23;;;6.82;;
23624;SDS011;11989;47.872;12.014;2023-04-15T19:33:04;9.35;;;7.30;;
23624;SDS011;11989;47.872;12.014;2023-04-15T19:35:30;13.15;;;7.05;;
23624;SDS011;11989;47.872;12.014;2023-04-15T19:37:56;7.68;;;5.70;;
23624;SDS011;11989;47.872;12.014;2023-04-15T19:40:22;8.68;;;6.13;;
23624;SDS011;11989;47.872;12.014;2023-04-15T19:42:48;8.27;;;6.20;;
23624;SDS011;11989;47.872;12.014;2023-04-15T19:45:15;7.88;;;6.05;;
23624;SDS011;11989;47.872;12.014;2023-04-15T19:47:41;10.68;;;6.18;;
23624;SDS011;11989;47.872;12.014;2023-04-15T19:50:07;11.18;;;6.07;;
23624;SDS011;11989;47.872;12.014;2023-04-15T19:52:35;9.00;;;5.68;;
23624;SDS011;11989;47.872;12.014;2023-04-15T19:55:01;6.90;;;5.15;;
23624;SDS011;11989;47.872;12.014;2023-04-15T19:57:27;9.05;;;5.20;;
23624;SDS011;11989;47.872;12.014;2023-04-15T19:59:53;10.02;;;4.93;;
23624;SDS011;11989;47.872;12.014;2023-04-15T20:02:19;8.07;;;5.05;;